sensor_id;sensor_type;location;lat;lon;timestamp;P1;durP1;ratioP1;P2;durP2;ratioP2
78508;SDS011;67802;50.846;7.958;2023-11-21T00:02:19;5.00;;;2.17;;
78508;SDS011;67802;50.846;7.958;2023-11-21T00:04:45;5.45;;;2.05;;
78508;SDS011;67802;50.846;7.958;2023-11-21T00:07:10;5.03;;;2.20;;
78508;SDS011;67802;50.846;7.958;2023-11-21T00:09:35;4.57;;;2.10;;
78508;SDS011;67802;50.846;7.958;2023-11-21T00:12:01;4.07;;;1.90;;
78508;SDS011;67802;50.846;7.958;2023-11-21T00:14:27;4.97;;;2.55;;
78508;SDS011;67802;50.846;7.958;2023-11-21T00:16:52;4.70;;;2.20;;
78508;SDS011;67802;50.846;7.958;2023-11-21T10:03:51;6.80;;;2.05;;
78508;SDS011;67802;50.846;7.958;2023-11-21T10:06:16;5.20;;;2.03;;
78508;SDS011;67802;50.846;7.958;2023-11-21T10:08:42;6.03;;;2.72;;
78508;SDS011;67802;50.846;7.958;2023-11-21T10:11:08;6.53;;;2.60;;
78508;SDS011;67802;50.846;7.958;2023-11-21T10:13:36;6.45;;;2.33;;
78508;SDS011;67802;50.846;7.958;2023-11-21T10:16:02;6.53;;;2.92;;
78508;SDS011;67802;50.846;7.958;2023-11-21T10:18:30;5.10;;;2.22;;
78508;SDS011;67802;50.846;7.958;2023-11-21T10:20:59;9.63;;;2.92;;
78508;SDS011;67802;50.846;7.958;2023-11-21T10:23:25;6.43;;;2.42;;
78508;SDS011;67802;50.846;7.958;2023-11-21T10:25:52;6.07;;;2.40;;
78508;SDS011;67802;50.846;7.958;2023-11-21T10:28:18;7.15;;;2.15;;
78508;SDS011;67802;50.846;7.958;2023-11-21T10:30:44;7.63;;;2.20;;
78508;SDS011;67802;50.846;7.958;2023-11-21T10:33:09;5.07;;;2.20;;
78508;SDS011;67802;50.846;7.958;2023-11-21T10:38:07;5.28;;;2.40;;
78508;SDS011;67802;50.846;7.958;2023-11-21T10:40:38;4.63;;;1.92;;
78508;SDS011;67802;50.846;7.958;2023-11-21T10:43:07;7.80;;;2.20;;
78508;SDS011;67802;50.846;7.958;2023-11-21T10:45:38;6.57;;;2.13;;
78508;SDS011;67802;50.846;7.958;2023-11-21T10:48:07;6.13;;;2.20;;
78508;SDS011;67802;50.846;7.958;2023-11-21T10:50:36;5.45;;;2.20;;
78508;SDS011;67802;50.846;7.958;2023-11-21T10:53:03;6.25;;;2.10;;
78508;SDS011;67802;50.846;7.958;2023-11-21T10:55:29;6.15;;;2.03;;
78508;SDS011;67802;50.846;7.958;2023-11-21T10:57:57;5.53;;;2.00;;
78508;SDS011;67802;50.846;7.958;2023-11-21T11:00:24;5.45;;;2.13;;
78508;SDS011;67802;50.846;7.958;2023-11-21T11:02:52;5.15;;;2.10;;
78508;SDS011;67802;50.846;7.958;2023-11-21T11:05:20;5.20;;;2.00;;
78508;SDS011;67802;50.846;7.958;2023-11-21T11:07:49;6.38;;;2.47;;
78508;SDS011;67802;50.846;7.958;2023-11-21T11:10:20;4.55;;;1.70;;
78508;SDS011;67802;50.846;7.958;2023-11-21T11:12:48;9.90;;;2.45;;
78508;SDS011;67802;50.846;7.958;2023-11-21T11:15:14;7.35;;;2.22;;
78508;SDS011;67802;50.846;7.958;2023-11-21T11:17:41;6.32;;;1.70;;
78508;SDS011;67802;50.846;7.958;2023-11-21T11:20:07;6.18;;;1.75;;
78508;SDS011;67802;50.846;7.958;2023-11-21T11:28:14;4.10;;;1.70;;
78508;SDS011;67802;50.846;7.958;2023-11-21T11:36:05;4.07;;;1.48;;
78508;SDS011;67802;50.846;7.958;2023-11-21T11:38:36;4.05;;;1.50;;
78508;SDS011;67802;50.846;7.958;2023-11-21T11:41:02;4.00;;;1.60;;
78508;SDS011;67802;50.846;7.958;2023-11-21T11:43:29;3.40;;;1.50;;
78508;SDS011;67802;50.846;7.958;2023-11-21T11:45:56;4.35;;;1.58;;
78508;SDS011;67802;50.846;7.958;2023-11-21T11:48:23;5.53;;;1.60;;
78508;SDS011;67802;50.846;7.958;2023-11-21T11:51:02;5.47;;;1.58;;
78508;SDS011;67802;50.846;7.958;2023-11-21T11:53:32;4.75;;;1.30;;
78508;SDS011;67802;50.846;7.958;2023-11-21T11:58:54;4.15;;;1.65;;
78508;SDS011;67802;50.846;7.958;2023-11-21T12:01:21;4.32;;;1.50;;
78508;SDS011;67802;50.846;7.958;2023-11-21T12:06:56;3.90;;;1.40;;
78508;SDS011;67802;50.846;7.958;2023-11-21T12:09:22;5.55;;;1.55;;
78508;SDS011;67802;50.846;7.958;2023-11-21T12:11:49;4.30;;;1.60;;
78508;SDS011;67802;50.846;7.958;2023-11-21T12:14:15;3.90;;;1.40;;
78508;SDS011;67802;50.846;7.958;2023-11-21T12:16:40;6.13;;;1.50;;
78508;SDS011;67802;50.846;7.958;2023-11-21T12:19:07;3.78;;;1.40;;
78508;SDS011;67802;50.846;7.958;2023-11-21T12:21:33;4.28;;;1.60;;
78508;SDS011;67802;50.846;7.958;2023-11-21T12:23:59;3.22;;;1.30;;
78508;SDS011;67802;50.846;7.958;2023-11-21T12:26:25;4.30;;;1.50;;
78508;SDS011;67802;50.846;7.958;2023-11-21T12:28:53;3.00;;;1.48;;
78508;SDS011;67802;50.846;7.958;2023-11-21T12:31:22;3.47;;;1.60;;
78508;SDS011;67802;50.846;7.958;2023-11-21T12:33:48;3.60;;;1.60;;
78508;SDS011;67802;50.846;7.958;2023-11-21T12:36:14;3.97;;;1.50;;
78508;SDS011;67802;50.846;7.958;2023-11-21T12:38:41;3.85;;;1.40;;
78508;SDS011;67802;50.846;7.958;2023-11-21T12:41:07;4.88;;;1.40;;
78508;SDS011;67802;50.846;7.958;2023-11-21T12:43:32;3.85;;;1.42;;
78508;SDS011;67802;50.846;7.958;2023-11-21T12:46:09;3.42;;;1.48;;
78508;SDS011;67802;50.846;7.958;2023-11-21T12:48:39;4.20;;;1.50;;
78508;SDS011;67802;50.846;7.958;2023-11-21T12:51:09;3.20;;;1.30;;
78508;SDS011;67802;50.846;7.958;2023-11-21T12:53:36;4.38;;;1.27;;
78508;SDS011;67802;50.846;7.958;2023-11-21T12:56:06;3.95;;;1.27;;
78508;SDS011;67802;50.846;7.958;2023-11-21T12:58:39;4.45;;;1.40;;
78508;SDS011;67802;50.846;7.958;2023-11-21T13:01:08;5.47;;;1.40;;
78508;SDS011;67802;50.846;7.958;2023-11-21T13:03:39;4.45;;;1.35;;
78508;SDS011;67802;50.846;7.958;2023-11-21T13:06:05;3.00;;;1.55;;
78508;SDS011;67802;50.846;7.958;2023-11-21T13:08:32;4.00;;;1.25;;
78508;SDS011;67802;50.846;7.958;2023-11-21T13:10:58;6.70;;;1.50;;
78508;SDS011;67802;50.846;7.958;2023-11-21T13:13:25;3.45;;;1.48;;
78508;SDS011;67802;50.846;7.958;2023-11-21T13:15:53;2.45;;;1.10;;
78508;SDS011;67802;50.846;7.958;2023-11-21T13:18:25;4.60;;;1.60;;
78508;SDS011;67802;50.846;7.958;2023-11-21T13:20:55;3.65;;;1.50;;
78508;SDS011;67802;50.846;7.958;2023-11-21T13:23:22;3.25;;;1.48;;
78508;SDS011;67802;50.846;7.958;2023-11-21T13:25:48;2.30;;;1.10;;
78508;SDS011;67802;50.846;7.958;2023-11-21T13:28:14;2.97;;;1.23;;
78508;SDS011;67802;50.846;7.958;2023-11-21T13:30:40;2.65;;;1.50;;
78508;SDS011;67802;50.846;7.958;2023-11-21T13:33:06;2.90;;;1.10;;
78508;SDS011;67802;50.846;7.958;2023-11-21T13:35:33;2.88;;;1.25;;
78508;SDS011;67802;50.846;7.958;2023-11-21T13:38:12;3.50;;;1.40;;
78508;SDS011;67802;50.846;7.958;2023-11-21T13:40:40;3.42;;;1.35;;
78508;SDS011;67802;50.846;7.958;2023-11-21T13:43:11;2.72;;;1.30;;
78508;SDS011;67802;50.846;7.958;2023-11-21T13:45:41;3.22;;;1.20;;
78508;SDS011;67802;50.846;7.958;2023-11-21T13:48:07;2.67;;;1.30;;
78508;SDS011;67802;50.846;7.958;2023-11-21T13:50:41;2.97;;;1.30;;
78508;SDS011;67802;50.846;7.958;2023-11-21T13:53:20;4.03;;;1.55;;
78508;SDS011;67802;50.846;7.958;2023-11-21T13:55:51;4.90;;;1.30;;
78508;SDS011;67802;50.846;7.958;2023-11-21T13:58:22;6.10;;;1.58;;
78508;SDS011;67802;50.846;7.958;2023-11-21T14:00:57;4.85;;;1.92;;
78508;SDS011;67802;50.846;7.958;2023-11-21T14:03:23;4.25;;;1.70;;
78508;SDS011;67802;50.846;7.958;2023-11-21T14:05:57;3.72;;;1.58;;
78508;SDS011;67802;50.846;7.958;2023-11-21T14:08:23;3.97;;;1.50;;
78508;SDS011;67802;50.846;7.958;2023-11-21T14:10:53;4.38;;;1.70;;
78508;SDS011;67802;50.846;7.958;2023-11-21T14:13:22;4.75;;;1.90;;
78508;SDS011;67802;50.846;7.958;2023-11-21T14:15:49;4.57;;;1.52;;
78508;SDS011;67802;50.846;7.958;2023-11-21T14:18:19;4.55;;;1.60;;
78508;SDS011;67802;50.846;7.958;2023-11-21T14:20:52;3.67;;;1.55;;
78508;SDS011;67802;50.846;7.958;2023-11-21T14:23:17;4.30;;;1.70;;
78508;SDS011;67802;50.846;7.958;2023-11-21T14:25:43;4.25;;;1.50;;
78508;SDS011;67802;50.846;7.958;2023-11-21T14:28:08;3.75;;;1.70;;
78508;SDS011;67802;50.846;7.958;2023-11-21T14:30:36;4.05;;;1.50;;
78508;SDS011;67802;50.846;7.958;2023-11-21T14:33:02;6.35;;;1.85;;
78508;SDS011;67802;50.846;7.958;2023-11-21T14:35:28;3.80;;;1.50;;
78508;SDS011;67802;50.846;7.958;2023-11-21T14:37:57;3.20;;;1.30;;
78508;SDS011;67802;50.846;7.958;2023-11-21T14:40:24;4.35;;;1.60;;
78508;SDS011;67802;50.846;7.958;2023-11-21T14:42:50;2.88;;;1.38;;
78508;SDS011;67802;50.846;7.958;2023-11-21T14:45:18;3.35;;;1.42;;
78508;SDS011;67802;50.846;7.958;2023-11-21T14:47:45;3.20;;;1.40;;
78508;SDS011;67802;50.846;7.958;2023-11-21T14:50:19;3.15;;;1.40;;
78508;SDS011;67802;50.846;7.958;2023-11-21T14:53:03;3.28;;;1.48;;
78508;SDS011;67802;50.846;7.958;2023-11-21T14:55:31;4.70;;;1.40;;
78508;SDS011;67802;50.846;7.958;2023-11-21T14:58:18;3.33;;;1.30;;
78508;SDS011;67802;50.846;7.958;2023-11-21T15:00:52;3.63;;;1.45;;
78508;SDS011;67802;50.846;7.958;2023-11-21T15:03:22;4.05;;;1.50;;
78508;SDS011;67802;50.846;7.958;2023-11-21T15:06:09;2.92;;;1.30;;
78508;SDS011;67802;50.846;7.958;2023-11-21T15:08:58;4.35;;;1.42;;
78508;SDS011;67802;50.846;7.958;2023-11-21T15:11:43;3.20;;;1.50;;
78508;SDS011;67802;50.846;7.958;2023-11-21T15:14:09;2.88;;;1.20;;
78508;SDS011;67802;50.846;7.958;2023-11-21T15:16:38;3.28;;;1.40;;
78508;SDS011;67802;50.846;7.958;2023-11-21T15:19:10;3.38;;;1.40;;
78508;SDS011;67802;50.846;7.958;2023-11-21T15:21:42;3.60;;;1.30;;
78508;SDS011;67802;50.846;7.958;2023-11-21T15:24:09;3.05;;;1.25;;
78508;SDS011;67802;50.846;7.958;2023-11-21T15:26:35;4.28;;;1.27;;
78508;SDS011;67802;50.846;7.958;2023-11-21T15:29:01;2.55;;;1.20;;
78508;SDS011;67802;50.846;7.958;2023-11-21T15:31:26;3.38;;;1.40;;
78508;SDS011;67802;50.846;7.958;2023-11-21T15:33:51;2.10;;;1.10;;
78508;SDS011;67802;50.846;7.958;2023-11-21T15:36:18;3.67;;;1.30;;
78508;SDS011;67802;50.846;7.958;2023-11-21T15:38:44;3.38;;;1.60;;
78508;SDS011;67802;50.846;7.958;2023-11-21T15:41:09;3.42;;;1.30;;
78508;SDS011;67802;50.846;7.958;2023-11-21T15:43:36;4.03;;;1.58;;
78508;SDS011;67802;50.846;7.958;2023-11-21T15:46:02;2.58;;;1.20;;
78508;SDS011;67802;50.846;7.958;2023-11-21T15:48:32;3.65;;;1.75;;
78508;SDS011;67802;50.846;7.958;2023-11-21T15:50:58;3.33;;;1.50;;
78508;SDS011;67802;50.846;7.958;2023-11-21T15:53:24;4.90;;;1.50;;
78508;SDS011;67802;50.846;7.958;2023-11-21T15:55:49;6.40;;;1.50;;
78508;SDS011;67802;50.846;7.958;2023-11-21T15:58:14;3.78;;;1.50;;
78508;SDS011;67802;50.846;7.958;2023-11-21T16:00:40;3.88;;;1.27;;
78508;SDS011;67802;50.846;7.958;2023-11-21T16:03:06;3.75;;;1.52;;
78508;SDS011;67802;50.846;7.958;2023-11-21T16:05:31;3.22;;;1.20;;
78508;SDS011;67802;50.846;7.958;2023-11-21T16:07:57;2.95;;;1.30;;
78508;SDS011;67802;50.846;7.958;2023-11-21T16:10:22;3.13;;;1.30;;
78508;SDS011;67802;50.846;7.958;2023-11-21T16:12:48;1.83;;;1.00;;
78508;SDS011;67802;50.846;7.958;2023-11-21T16:15:13;3.25;;;1.40;;
78508;SDS011;67802;50.846;7.958;2023-11-21T16:17:38;3.83;;;1.27;;
78508;SDS011;67802;50.846;7.958;2023-11-21T16:20:04;3.55;;;1.40;;
78508;SDS011;67802;50.846;7.958;2023-11-21T16:22:38;3.88;;;1.40;;
78508;SDS011;67802;50.846;7.958;2023-11-21T16:25:05;3.42;;;1.20;;
78508;SDS011;67802;50.846;7.958;2023-11-21T16:27:35;3.38;;;1.40;;
78508;SDS011;67802;50.846;7.958;2023-11-21T16:30:03;3.70;;;1.70;;
78508;SDS011;67802;50.846;7.958;2023-11-21T16:32:29;2.95;;;1.30;;
78508;SDS011;67802;50.846;7.958;2023-11-21T16:34:55;3.95;;;1.30;;
78508;SDS011;67802;50.846;7.958;2023-11-21T16:37:21;3.45;;;1.17;;
78508;SDS011;67802;50.846;7.958;2023-11-21T16:39:47;2.97;;;1.20;;
78508;SDS011;67802;50.846;7.958;2023-11-21T16:42:12;3.90;;;1.05;;
78508;SDS011;67802;50.846;7.958;2023-11-21T16:44:38;2.10;;;1.00;;
78508;SDS011;67802;50.846;7.958;2023-11-21T16:47:03;2.53;;;1.10;;
78508;SDS011;67802;50.846;7.958;2023-11-21T16:49:32;2.65;;;1.05;;
78508;SDS011;67802;50.846;7.958;2023-11-21T16:52:02;2.78;;;1.10;;
78508;SDS011;67802;50.846;7.958;2023-11-21T16:54:28;2.78;;;1.20;;
78508;SDS011;67802;50.846;7.958;2023-11-21T16:56:53;2.50;;;1.20;;
78508;SDS011;67802;50.846;7.958;2023-11-21T16:59:19;3.65;;;1.30;;
78508;SDS011;67802;50.846;7.958;2023-11-21T17:01:48;2.40;;;1.10;;
78508;SDS011;67802;50.846;7.958;2023-11-21T17:04:13;2.50;;;1.00;;
78508;SDS011;67802;50.846;7.958;2023-11-21T17:06:40;2.72;;;1.10;;
78508;SDS011;67802;50.846;7.958;2023-11-21T17:09:06;1.95;;;1.05;;
78508;SDS011;67802;50.846;7.958;2023-11-21T17:11:35;3.55;;;1.23;;
78508;SDS011;67802;50.846;7.958;2023-11-21T17:14:03;5.75;;;1.20;;
78508;SDS011;67802;50.846;7.958;2023-11-21T17:16:30;6.57;;;1.30;;
78508;SDS011;67802;50.846;7.958;2023-11-21T17:18:56;3.58;;;1.10;;
78508;SDS011;67802;50.846;7.958;2023-11-21T17:21:21;2.65;;;0.98;;
78508;SDS011;67802;50.846;7.958;2023-11-21T17:23:46;3.30;;;1.10;;
78508;SDS011;67802;50.846;7.958;2023-11-21T17:26:12;3.22;;;1.20;;
78508;SDS011;67802;50.846;7.958;2023-11-21T17:28:40;2.92;;;1.15;;
78508;SDS011;67802;50.846;7.958;2023-11-21T17:31:09;2.47;;;1.10;;
78508;SDS011;67802;50.846;7.958;2023-11-21T17:33:35;4.38;;;1.15;;
78508;SDS011;67802;50.846;7.958;2023-11-21T17:36:00;3.70;;;1.35;;
78508;SDS011;67802;50.846;7.958;2023-11-21T17:38:26;3.00;;;1.20;;
78508;SDS011;67802;50.846;7.958;2023-11-21T17:40:51;3.10;;;1.10;;
78508;SDS011;67802;50.846;7.958;2023-11-21T17:43:17;3.00;;;1.05;;
78508;SDS011;67802;50.846;7.958;2023-11-21T17:45:42;4.70;;;1.20;;
78508;SDS011;67802;50.846;7.958;2023-11-21T17:48:08;3.15;;;1.10;;
78508;SDS011;67802;50.846;7.958;2023-11-21T17:50:36;2.75;;;1.00;;
78508;SDS011;67802;50.846;7.958;2023-11-21T17:53:01;3.22;;;1.00;;
78508;SDS011;67802;50.846;7.958;2023-11-21T17:55:28;3.88;;;1.40;;
78508;SDS011;67802;50.846;7.958;2023-11-21T17:57:54;3.10;;;1.13;;
78508;SDS011;67802;50.846;7.958;2023-11-21T18:00:19;2.33;;;1.30;;
78508;SDS011;67802;50.846;7.958;2023-11-21T18:02:45;3.40;;;1.00;;
78508;SDS011;67802;50.846;7.958;2023-11-21T18:05:10;2.97;;;1.00;;
78508;SDS011;67802;50.846;7.958;2023-11-21T18:07:38;2.80;;;0.88;;
78508;SDS011;67802;50.846;7.958;2023-11-21T18:10:04;2.75;;;1.00;;
78508;SDS011;67802;50.846;7.958;2023-11-21T18:12:31;2.80;;;1.10;;
78508;SDS011;67802;50.846;7.958;2023-11-21T18:14:56;5.53;;;1.10;;
78508;SDS011;67802;50.846;7.958;2023-11-21T18:17:22;2.80;;;1.05;;
78508;SDS011;67802;50.846;7.958;2023-11-21T18:19:47;3.60;;;1.10;;
78508;SDS011;67802;50.846;7.958;2023-11-21T18:24:43;2.37;;;0.90;;
78508;SDS011;67802;50.846;7.958;2023-11-21T18:27:09;2.60;;;1.00;;
78508;SDS011;67802;50.846;7.958;2023-11-21T18:29:34;3.00;;;1.17;;
78508;SDS011;67802;50.846;7.958;2023-11-21T18:31:59;5.30;;;1.00;;
78508;SDS011;67802;50.846;7.958;2023-11-21T18:34:25;2.67;;;1.02;;
78508;SDS011;67802;50.846;7.958;2023-11-21T18:36:50;1.95;;;0.90;;
78508;SDS011;67802;50.846;7.958;2023-11-21T18:39:16;1.83;;;0.90;;
78508;SDS011;67802;50.846;7.958;2023-11-21T18:41:42;3.25;;;1.00;;
78508;SDS011;67802;50.846;7.958;2023-11-21T18:44:08;1.75;;;1.00;;
78508;SDS011;67802;50.846;7.958;2023-11-21T18:46:37;1.88;;;0.93;;
78508;SDS011;67802;50.846;7.958;2023-11-21T18:49:03;3.03;;;1.10;;
78508;SDS011;67802;50.846;7.958;2023-11-21T18:51:29;2.70;;;1.00;;
78508;SDS011;67802;50.846;7.958;2023-11-21T18:53:54;1.58;;;0.88;;
78508;SDS011;67802;50.846;7.958;2023-11-21T18:56:19;2.17;;;0.88;;
78508;SDS011;67802;50.846;7.958;2023-11-21T18:58:46;2.03;;;0.90;;
78508;SDS011;67802;50.846;7.958;2023-11-21T19:01:12;2.03;;;0.90;;
78508;SDS011;67802;50.846;7.958;2023-11-21T19:03:39;1.75;;;0.90;;
78508;SDS011;67802;50.846;7.958;2023-11-21T19:06:07;2.45;;;0.85;;
78508;SDS011;67802;50.846;7.958;2023-11-21T19:08:34;3.10;;;1.20;;
78508;SDS011;67802;50.846;7.958;2023-11-21T19:10:59;3.15;;;1.20;;
78508;SDS011;67802;50.846;7.958;2023-11-21T19:13:24;3.40;;;1.43;;
78508;SDS011;67802;50.846;7.958;2023-11-21T19:15:50;2.83;;;1.10;;
78508;SDS011;67802;50.846;7.958;2023-11-21T19:18:15;2.97;;;1.30;;
78508;SDS011;67802;50.846;7.958;2023-11-21T19:20:40;3.90;;;1.50;;
78508;SDS011;67802;50.846;7.958;2023-11-21T19:23:05;3.80;;;1.50;;
78508;SDS011;67802;50.846;7.958;2023-11-21T19:25:31;4.15;;;1.60;;
78508;SDS011;67802;50.846;7.958;2023-11-21T19:27:58;3.40;;;1.40;;
78508;SDS011;67802;50.846;7.958;2023-11-21T19:30:23;3.80;;;1.20;;
78508;SDS011;67802;50.846;7.958;2023-11-21T19:32:49;3.25;;;1.30;;
78508;SDS011;67802;50.846;7.958;2023-11-21T19:35:15;3.00;;;1.30;;
78508;SDS011;67802;50.846;7.958;2023-11-21T19:37:41;4.95;;;1.70;;
78508;SDS011;67802;50.846;7.958;2023-11-21T19:40:06;4.53;;;1.50;;
78508;SDS011;67802;50.846;7.958;2023-11-21T19:42:32;3.60;;;1.45;;
78508;SDS011;67802;50.846;7.958;2023-11-21T19:44:59;3.85;;;1.50;;
78508;SDS011;67802;50.846;7.958;2023-11-21T19:47:24;3.85;;;1.52;;
78508;SDS011;67802;50.846;7.958;2023-11-21T19:49:50;3.17;;;1.40;;
78508;SDS011;67802;50.846;7.958;2023-11-21T19:52:18;3.85;;;1.33;;
78508;SDS011;67802;50.846;7.958;2023-11-21T19:54:43;4.18;;;1.52;;
78508;SDS011;67802;50.846;7.958;2023-11-21T19:57:09;4.57;;;1.50;;
78508;SDS011;67802;50.846;7.958;2023-11-21T19:59:36;3.97;;;1.50;;
78508;SDS011;67802;50.846;7.958;2023-11-21T20:02:07;3.75;;;1.30;;
78508;SDS011;67802;50.846;7.958;2023-11-21T20:04:33;3.58;;;1.40;;
78508;SDS011;67802;50.846;7.958;2023-11-21T20:06:58;3.03;;;1.43;;
78508;SDS011;67802;50.846;7.958;2023-11-21T20:09:24;5.25;;;1.60;;
78508;SDS011;67802;50.846;7.958;2023-11-21T20:11:49;3.92;;;1.50;;
78508;SDS011;67802;50.846;7.958;2023-11-21T20:14:15;3.80;;;1.60;;
78508;SDS011;67802;50.846;7.958;2023-11-21T20:16:41;4.03;;;1.55;;
78508;SDS011;67802;50.846;7.958;2023-11-21T20:19:06;3.47;;;1.40;;
78508;SDS011;67802;50.846;7.958;2023-11-21T20:21:35;5.18;;;1.30;;
78508;SDS011;67802;50.846;7.958;2023-11-21T20:24:00;3.17;;;1.33;;
78508;SDS011;67802;50.846;7.958;2023-11-21T20:26:26;4.75;;;1.50;;
78508;SDS011;67802;50.846;7.958;2023-11-21T20:28:52;4.25;;;1.77;;
78508;SDS011;67802;50.846;7.958;2023-11-21T20:31:18;3.42;;;1.38;;
78508;SDS011;67802;50.846;7.958;2023-11-21T20:33:44;4.03;;;1.65;;
78508;SDS011;67802;50.846;7.958;2023-11-21T20:36:09;5.07;;;1.35;;
78508;SDS011;67802;50.846;7.958;2023-11-21T20:38:35;4.00;;;1.27;;
78508;SDS011;67802;50.846;7.958;2023-11-21T20:41:00;3.03;;;1.30;;
78508;SDS011;67802;50.846;7.958;2023-11-21T20:43:26;4.40;;;1.50;;
78508;SDS011;67802;50.846;7.958;2023-11-21T20:45:51;3.17;;;1.40;;
78508;SDS011;67802;50.846;7.958;2023-11-21T20:48:17;4.85;;;1.30;;
78508;SDS011;67802;50.846;7.958;2023-11-21T20:50:44;2.83;;;1.13;;
78508;SDS011;67802;50.846;7.958;2023-11-21T20:53:09;3.17;;;1.08;;
78508;SDS011;67802;50.846;7.958;2023-11-21T20:55:39;3.85;;;1.30;;
78508;SDS011;67802;50.846;7.958;2023-11-21T20:58:05;3.40;;;1.33;;
78508;SDS011;67802;50.846;7.958;2023-11-21T21:00:31;3.78;;;1.50;;
78508;SDS011;67802;50.846;7.958;2023-11-21T21:02:57;4.82;;;1.40;;
78508;SDS011;67802;50.846;7.958;2023-11-21T21:05:22;3.88;;;1.50;;
78508;SDS011;67802;50.846;7.958;2023-11-21T21:07:48;3.05;;;1.25;;
78508;SDS011;67802;50.846;7.958;2023-11-21T21:10:14;3.22;;;1.40;;
78508;SDS011;67802;50.846;7.958;2023-11-21T21:12:39;3.13;;;1.27;;
78508;SDS011;67802;50.846;7.958;2023-11-21T21:15:06;3.10;;;1.20;;
78508;SDS011;67802;50.846;7.958;2023-11-21T21:17:34;4.47;;;1.30;;
78508;SDS011;67802;50.846;7.958;2023-11-21T21:20:00;4.05;;;1.50;;
78508;SDS011;67802;50.846;7.958;2023-11-21T21:22:25;3.72;;;1.30;;
78508;SDS011;67802;50.846;7.958;2023-11-21T21:24:51;2.92;;;1.15;;
78508;SDS011;67802;50.846;7.958;2023-11-21T21:27:16;2.78;;;1.23;;
78508;SDS011;67802;50.846;7.958;2023-11-21T21:29:41;3.63;;;1.23;;
78508;SDS011;67802;50.846;7.958;2023-11-21T21:32:06;3.27;;;1.40;;
78508;SDS011;67802;50.846;7.958;2023-11-21T21:34:32;4.03;;;1.60;;
78508;SDS011;67802;50.846;7.958;2023-11-21T21:36:57;2.88;;;1.30;;
78508;SDS011;67802;50.846;7.958;2023-11-21T21:39:24;3.35;;;1.20;;
78508;SDS011;67802;50.846;7.958;2023-11-21T21:41:50;3.47;;;1.30;;
78508;SDS011;67802;50.846;7.958;2023-11-21T21:44:15;3.10;;;1.35;;
78508;SDS011;67802;50.846;7.958;2023-11-21T21:46:41;4.63;;;2.33;;
78508;SDS011;67802;50.846;7.958;2023-11-21T21:49:06;2.33;;;1.10;;
78508;SDS011;67802;50.846;7.958;2023-11-21T21:51:34;2.40;;;1.20;;
78508;SDS011;67802;50.846;7.958;2023-11-21T21:54:01;2.70;;;1.25;;
78508;SDS011;67802;50.846;7.958;2023-11-21T21:56:26;4.43;;;1.40;;
78508;SDS011;67802;50.846;7.958;2023-11-21T21:58:52;3.40;;;1.35;;
78508;SDS011;67802;50.846;7.958;2023-11-21T22:01:17;3.00;;;1.30;;
78508;SDS011;67802;50.846;7.958;2023-11-21T22:03:43;3.90;;;1.30;;
78508;SDS011;67802;50.846;7.958;2023-11-21T22:06:08;3.50;;;1.30;;
78508;SDS011;67802;50.846;7.958;2023-11-21T22:08:34;3.75;;;1.48;;
78508;SDS011;67802;50.846;7.958;2023-11-21T22:10:59;3.00;;;1.20;;
78508;SDS011;67802;50.846;7.958;2023-11-21T22:13:26;2.88;;;1.23;;
78508;SDS011;67802;50.846;7.958;2023-11-21T22:15:51;3.05;;;1.33;;
78508;SDS011;67802;50.846;7.958;2023-11-21T22:18:17;3.65;;;1.05;;
78508;SDS011;67802;50.846;7.958;2023-11-21T22:20:42;3.83;;;1.20;;
78508;SDS011;67802;50.846;7.958;2023-11-21T22:23:07;3.53;;;1.40;;
78508;SDS011;67802;50.846;7.958;2023-11-21T22:25:33;3.10;;;1.27;;
78508;SDS011;67802;50.846;7.958;2023-11-21T22:28:01;2.92;;;1.30;;
78508;SDS011;67802;50.846;7.958;2023-11-21T22:30:26;2.83;;;1.30;;
78508;SDS011;67802;50.846;7.958;2023-11-21T22:32:51;2.72;;;1.20;;
78508;SDS011;67802;50.846;7.958;2023-11-21T22:35:20;2.72;;;1.27;;
78508;SDS011;67802;50.846;7.958;2023-11-21T22:37:46;4.00;;;1.30;;
78508;SDS011;67802;50.846;7.958;2023-11-21T22:40:11;2.58;;;1.10;;
78508;SDS011;67802;50.846;7.958;2023-11-21T22:42:37;2.50;;;1.10;;
78508;SDS011;67802;50.846;7.958;2023-11-21T22:45:03;3.65;;;1.50;;
78508;SDS011;67802;50.846;7.958;2023-11-21T22:47:30;2.80;;;1.15;;
78508;SDS011;67802;50.846;7.958;2023-11-21T22:49:55;2.50;;;1.20;;
78508;SDS011;67802;50.846;7.958;2023-11-21T22:52:20;3.22;;;1.20;;
78508;SDS011;67802;50.846;7.958;2023-11-21T22:54:49;2.55;;;1.15;;
78508;SDS011;67802;50.846;7.958;2023-11-21T22:57:15;3.42;;;1.30;;
78508;SDS011;67802;50.846;7.958;2023-11-21T22:59:40;2.38;;;1.23;;
78508;SDS011;67802;50.846;7.958;2023-11-21T23:02:05;3.33;;;1.10;;
78508;SDS011;67802;50.846;7.958;2023-11-21T23:04:31;2.75;;;1.20;;
78508;SDS011;67802;50.846;7.958;2023-11-21T23:06:56;2.53;;;1.20;;
78508;SDS011;67802;50.846;7.958;2023-11-21T23:09:21;2.50;;;1.10;;
78508;SDS011;67802;50.846;7.958;2023-11-21T23:11:47;2.47;;;1.13;;
78508;SDS011;67802;50.846;7.958;2023-11-21T23:14:14;3.42;;;1.23;;
78508;SDS011;67802;50.846;7.958;2023-11-21T23:16:39;2.03;;;0.93;;
78508;SDS011;67802;50.846;7.958;2023-11-21T23:19:05;3.10;;;1.20;;
78508;SDS011;67802;50.846;7.958;2023-11-21T23:21:30;2.28;;;1.02;;
78508;SDS011;67802;50.846;7.958;2023-11-21T23:23:57;2.50;;;1.10;;
78508;SDS011;67802;50.846;7.958;2023-11-21T23:26:22;2.40;;;1.20;;
78508;SDS011;67802;50.846;7.958;2023-11-21T23:28:48;2.55;;;1.10;;
78508;SDS011;67802;50.846;7.958;2023-11-21T23:31:14;2.40;;;1.10;;
78508;SDS011;67802;50.846;7.958;2023-11-21T23:33:39;3.55;;;1.33;;
78508;SDS011;67802;50.846;7.958;2023-11-21T23:36:05;2.75;;;1.20;;
78508;SDS011;67802;50.846;7.958;2023-11-21T23:38:30;3.03;;;1.30;;
78508;SDS011;67802;50.846;7.958;2023-11-21T23:40:56;3.15;;;1.20;;
78508;SDS011;67802;50.846;7.958;2023-11-21T23:43:21;3.10;;;1.20;;
78508;SDS011;67802;50.846;7.958;2023-11-21T23:45:48;2.65;;;1.10;;
78508;SDS011;67802;50.846;7.958;2023-11-21T23:48:14;2.83;;;1.20;;
78508;SDS011;67802;50.846;7.958;2023-11-21T23:50:40;3.03;;;1.10;;
78508;SDS011;67802;50.846;7.958;2023-11-21T23:53:05;2.72;;;1.08;;
78508;SDS011;67802;50.846;7.958;2023-11-21T23:55:31;1.92;;;0.93;;
78508;SDS011;67802;50.846;7.958;2023-11-21T23:57:56;2.47;;;1.00;;
